ROMMA est une association bénévole à but non lucratif. Votre soutien est indispensable : ADHERER à ROMMA ou FAIRE un DON

Chindrieux - (73, Savoie)

Chautagne (260 m)   Longitude: 05°50' E   Latitude: 45°49' N Station partenaire n°74
 

Détail journalier du     <<     >>

Température Precipitation Humidité Pression Vent Dir Rafale Dir. rafale Ensol.
Heure (°C) (mm) (%) (hPa) (km/h) (km/h) (min)
01:00 10.9067101214N26NNE0
02:00 10.4068101213N27NO0
03:00 9.9069101210N24N0
04:00 9.407010127N21NNE0
05:00 9.107110137NNO29N0
06:00 8.707110135NNO19N0
07:00 8.407010135ENE21NNO0
08:00 8.3070101410NNO27N0
09:00 6.008110145NO10NNO0
10:00 7.707710142NNO10ONO10
11:00 10.606410148N16NNO20
12:00 12.2058101411NNO26ONO40
13:00 13.1053101311NNO23NNO10
14:00 14.405310139NO23NO30
15:00 14.105510147O19O0
16:00 14.905310135S13SE20
17:00 14.805310135S13SSE0
18:00 15.505310133S13SSE20
19:00 14.704810136N23NO10
20:00 13.8049101411N21N50
21:00 12.4051101410N24NNE0
22:00 11.7052101511N27NNO0
23:00 11.0053101511N26NO0
minuit 10.705410158N21NNE0

Graphique du 12-04-2019

 

Serveur OMMA